Time;durP1;ratioP1;P1;durP2;ratioP2;P2;SDS_P1;SDS_P2;PMS_P1;PMS_P2;Temp;Humidity;BMP_temperature;BMP_pressure;BME280_temperature;BME280_humidity;BME280_pressure;Samples;Min_cycle;Max_cycle;Signal;HPM_P1;HPM_P2
2022/11/16 00:01:22;;;;;;;9.23;8.07;;;11.80;99.90;;;;;;4974054;28;20081;-47
2022/11/16 00:03:50;;;;;;;11.77;7.40;;;11.80;99.90;;;;;;4973542;28;20050;-51
2022/11/16 00:06:16;;;;;;;11.75;6.72;;;11.80;99.90;;;;;;4974021;28;20089;-47
2022/11/16 00:11:32;;;;;;;13.23;7.53;;;11.90;99.90;;;;;;4974232;28;20034;-50
2022/11/16 00:13:58;;;;;;;12.73;7.57;;;11.90;99.90;;;;;;4973316;28;20027;-46
2022/11/16 00:16:23;;;;;;;13.90;7.57;;;11.90;99.90;;;;;;4973910;28;20042;-47
2022/11/16 00:19:02;;;;;;;13.32;7.18;;;11.80;99.90;;;;;;4973775;28;20027;-51
2022/11/16 00:21:27;;;;;;;9.73;7.55;;;11.80;99.90;;;;;;4973695;28;20050;-49
2022/11/16 00:23:53;;;;;;;12.02;8.93;;;11.70;99.90;;;;;;4972881;28;20019;-48
2022/11/16 00:26:20;;;;;;;13.32;7.13;;;11.70;99.90;;;;;;4973665;28;20027;-47
2022/11/16 00:28:46;;;;;;;10.50;8.10;;;11.70;99.90;;;;;;4972477;28;20394;-45
2022/11/16 00:31:11;;;;;;;11.52;7.72;;;11.60;99.90;;;;;;4973578;28;20034;-46
2022/11/16 00:33:38;;;;;;;11.25;7.35;;;11.60;99.90;;;;;;4972958;28;20046;-47
2022/11/16 00:36:06;;;;;;;11.63;7.63;;;11.70;99.90;;;;;;4988248;28;20169;-45
2022/11/16 00:38:31;;;;;;;12.68;8.15;;;11.70;99.90;;;;;;4973453;28;20035;-48
2022/11/16 00:40:57;;;;;;;9.50;7.38;;;11.80;99.90;;;;;;4972681;28;20037;-48
2022/11/16 00:43:22;;;;;;;10.55;7.15;;;11.80;99.90;;;;;;4972517;28;20030;-49
2022/11/16 00:45:48;;;;;;;10.77;7.93;;;11.70;99.90;;;;;;4973106;28;20027;-48
2022/11/16 00:48:14;;;;;;;10.23;8.13;;;11.70;99.90;;;;;;4973663;28;20475;-47
2022/11/16 00:50:39;;;;;;;9.65;7.43;;;11.60;99.90;;;;;;4973353;28;20286;-50
2022/11/16 00:53:05;;;;;;;12.07;7.38;;;11.50;99.90;;;;;;4972626;28;20038;-50
2022/11/16 00:55:32;;;;;;;12.82;6.20;;;11.50;99.90;;;;;;4973119;28;20073;-49
2022/11/16 00:57:57;;;;;;;11.75;7.03;;;11.40;99.90;;;;;;4973181;28;20113;-50
2022/11/16 01:00:23;;;;;;;13.00;6.90;;;11.40;99.90;;;;;;4972991;28;20122;-48
2022/11/16 01:02:48;;;;;;;9.68;7.28;;;11.30;99.90;;;;;;4972599;28;20034;-47
2022/11/16 01:05:14;;;;;;;11.95;6.50;;;11.30;99.90;;;;;;4972696;28;20074;-50
2022/11/16 01:07:40;;;;;;;8.75;6.20;;;11.30;99.90;;;;;;4973069;28;20395;-46
2022/11/16 01:10:09;;;;;;;10.98;6.20;;;11.30;99.90;;;;;;4972744;28;20066;-45
2022/11/16 01:12:35;;;;;;;8.95;6.45;;;11.50;99.90;;;;;;4972187;28;20454;-47
2022/11/16 01:15:01;;;;;;;8.95;6.50;;;11.50;99.90;;;;;;4972992;28;20035;-50
2022/11/16 01:17:26;;;;;;;10.45;6.18;;;11.40;99.90;;;;;;4972715;28;20407;-49
2022/11/16 01:19:52;;;;;;;7.57;6.25;;;11.40;99.90;;;;;;4972771;28;20041;-46
2022/11/16 01:22:18;;;;;;;7.97;5.85;;;11.40;99.90;;;;;;4972260;28;20050;-49
2022/11/16 01:24:45;;;;;;;11.05;6.20;;;11.40;99.90;;;;;;4987837;28;20569;-46
2022/11/16 01:27:11;;;;;;;7.70;5.88;;;11.40;99.90;;;;;;4970810;28;20053;-49
2022/11/16 01:29:36;;;;;;;12.25;6.07;;;11.40;99.90;;;;;;4972725;28;20058;-47
2022/11/16 01:32:02;;;;;;;7.55;6.05;;;11.30;99.90;;;;;;4987007;28;20019;-49
2022/11/16 01:34:28;;;;;;;7.63;5.60;;;11.30;99.90;;;;;;4972811;28;20027;-47
2022/11/16 01:36:53;;;;;;;8.15;5.60;;;11.30;99.90;;;;;;4987746;28;20411;-47
2022/11/16 01:39:19;;;;;;;30.00;20.70;;;11.30;99.90;;;;;;5004558;23;20510;-45
2022/11/16 01:41:44;;;;;;;19.38;12.95;;;11.30;99.90;;;;;;4992085;28;20590;-50
2022/11/16 01:44:32;;;;;;;10.73;6.85;;;11.40;99.90;;;;;;4991662;28;20090;-46
2022/11/16 01:47:04;;;;;;;8.52;5.72;;;11.40;99.90;;;;;;4992067;28;20029;-48
2022/11/16 01:49:33;;;;;;;6.35;5.72;;;11.30;99.90;;;;;;4992082;28;20026;-47
2022/11/16 01:52:05;;;;;;;6.60;5.97;;;11.30;99.90;;;;;;4991544;28;20029;-50
2022/11/16 01:54:35;;;;;;;10.65;5.93;;;11.40;99.90;;;;;;4996306;28;20042;-47
2022/11/16 01:57:03;;;;;;;5.95;5.18;;;11.40;99.90;;;;;;4996098;28;20462;-48
2022/11/16 01:59:29;;;;;;;8.43;5.53;;;11.40;99.90;;;;;;4994887;28;20022;-48
2022/11/16 02:01:57;;;;;;;11.45;5.70;;;11.30;99.90;;;;;;4995535;28;20036;-48
2022/11/16 02:04:23;;;;;;;7.95;5.82;;;11.30;99.90;;;;;;4995906;28;20030;-48
2022/11/16 02:07:26;;;;;;;7.32;5.68;;;11.30;99.90;;;;;;4995689;28;20533;-50
2022/11/16 02:10:15;;;;;;;6.20;5.35;;;11.30;99.90;;;;;;4995636;28;20022;-47
2022/11/16 02:13:01;;;;;;;7.75;6.00;;;11.30;99.90;;;;;;4995050;28;20026;-51
2022/11/16 02:15:48;;;;;;;10.38;6.28;;;11.30;99.90;;;;;;4995738;28;20125;-47
2022/11/16 02:18:28;;;;;;;13.27;6.25;;;11.30;99.90;;;;;;4995532;28;20094;-52
2022/11/16 02:21:05;;;;;;;7.97;6.50;;;11.30;99.90;;;;;;4995603;28;20498;-46
2022/11/16 02:24:10;;;;;;;8.57;6.43;;;11.30;99.90;;;;;;4994701;28;20550;-50
2022/11/16 02:26:57;;;;;;;7.25;6.55;;;11.30;99.90;;;;;;4992348;28;20038;-52
2022/11/16 02:29:36;;;;;;;9.02;6.75;;;11.30;99.90;;;;;;4994229;28;20113;-49
2022/11/16 02:32:13;;;;;;;12.32;7.35;;;11.30;99.90;;;;;;4995069;28;20018;-48
2022/11/16 02:35:01;;;;;;;10.25;7.57;;;11.30;99.90;;;;;;4995400;28;20076;-49
2022/11/16 02:37:31;;;;;;;8.32;7.13;;;11.30;99.90;;;;;;4995238;28;20105;-50
2022/11/16 02:40:00;;;;;;;10.73;7.85;;;11.30;99.90;;;;;;4995073;28;20039;-50
2022/11/16 02:42:33;;;;;;;10.35;8.00;;;11.20;99.90;;;;;;4994437;28;20042;-51
2022/11/16 02:44:59;;;;;;;10.15;8.18;;;11.30;99.90;;;;;;4995365;28;20022;-48
2022/11/16 02:47:29;;;;;;;11.27;8.52;;;11.20;99.90;;;;;;4994904;28;20080;-47
2022/11/16 02:50:01;;;;;;;16.45;8.75;;;11.20;99.90;;;;;;4995019;28;20019;-45
2022/11/16 02:52:27;;;;;;;14.68;9.27;;;11.20;99.90;;;;;;4994388;28;20375;-46
2022/11/16 02:54:53;;;;;;;14.95;9.38;;;11.20;99.90;;;;;;4994957;28;20029;-48
2022/11/16 02:57:25;;;;;;;14.00;9.73;;;11.20;99.90;;;;;;4994796;28;20031;-47
2022/11/16 02:59:55;;;;;;;13.68;10.10;;;11.20;99.90;;;;;;4994725;28;20077;-47
2022/11/16 03:02:38;;;;;;;15.35;10.30;;;11.20;99.90;;;;;;4993941;28;20435;-49
2022/11/16 03:05:10;;;;;;;18.13;10.30;;;11.20;99.90;;;;;;4993918;28;20486;-46
2022/11/16 03:07:44;;;;;;;12.82;10.68;;;11.30;99.90;;;;;;4994539;28;20459;-46
2022/11/16 03:11:57;;;;;;;15.85;10.77;;;11.30;99.90;;;;;;4994618;28;20113;-47
2022/11/16 03:12:57;;;;;;;15.80;11.02;;;11.20;99.90;;;;;;4994241;28;20030;-48
2022/11/16 03:15:23;;;;;;;16.10;12.20;;;11.20;99.90;;;;;;4994648;28;20450;-50
2022/11/16 03:17:49;;;;;;;14.82;11.13;;;11.30;99.90;;;;;;4994495;28;20106;-45
2022/11/16 03:20:19;;;;;;;19.67;13.32;;;11.20;99.90;;;;;;4994439;28;20329;-45
2022/11/16 03:22:51;;;;;;;18.38;12.98;;;11.20;99.90;;;;;;4994263;28;20172;-46
2022/11/16 03:25:20;;;;;;;20.02;12.43;;;11.30;99.90;;;;;;4994497;28;20019;-45
2022/11/16 03:28:00;;;;;;;17.13;13.30;;;11.30;99.90;;;;;;4991451;28;20065;-46
2022/11/16 03:30:30;;;;;;;19.40;13.20;;;11.20;99.90;;;;;;4994391;28;20065;-46
2022/11/16 03:32:58;;;;;;;20.52;13.00;;;11.20;99.90;;;;;;4994059;28;20422;-45
2022/11/16 03:35:29;;;;;;;17.45;13.07;;;11.20;99.90;;;;;;4993504;28;20026;-51
2022/11/16 03:37:58;;;;;;;22.10;13.93;;;11.20;99.90;;;;;;4994223;28;20034;-48
2022/11/16 03:40:26;;;;;;;15.18;12.73;;;11.20;99.90;;;;;;4994089;28;20034;-46
2022/11/16 03:42:54;;;;;;;22.05;14.30;;;11.10;99.90;;;;;;4993579;28;20030;-47
2022/11/16 03:45:19;;;;;;;17.83;13.40;;;11.10;99.90;;;;;;4993969;28;20023;-48
2022/11/16 03:47:45;;;;;;;17.83;13.07;;;11.10;99.90;;;;;;4993898;28;20408;-48
2022/11/16 03:50:11;;;;;;;23.13;13.98;;;11.20;99.90;;;;;;4993725;28;20077;-50
2022/11/16 03:52:37;;;;;;;18.35;14.27;;;11.20;99.90;;;;;;4993194;28;20030;-49
2022/11/16 03:55:03;;;;;;;19.20;15.38;;;11.20;99.90;;;;;;4993763;28;20108;-51
2022/11/16 03:57:29;;;;;;;17.30;14.55;;;11.20;99.90;;;;;;4993715;28;20038;-47
2022/11/16 03:59:54;;;;;;;20.02;14.88;;;11.20;99.90;;;;;;4993571;28;20084;-48
2022/11/16 04:02:20;;;;;;;18.27;14.52;;;11.20;99.90;;;;;;4993086;28;20024;-47
2022/11/16 04:24:22;;;;;;;19.70;16.20;;;11.20;99.90;;;;;;4952070;29;20145;-47
2022/11/16 04:29:38;;;;;;;21.60;16.10;;;11.20;99.90;;;;;;4993374;28;20041;-45
2022/11/16 04:37:51;;;;;;;22.92;15.10;;;11.20;99.90;;;;;;4992987;28;19912;-44
2022/11/16 04:40:28;;;;;;;19.33;15.00;;;11.20;99.90;;;;;;4992778;28;20027;-45
2022/11/16 04:42:59;;;;;;;21.05;15.50;;;11.20;99.90;;;;;;4992262;28;20113;-51
2022/11/16 04:48:11;;;;;;;18.77;15.77;;;11.20;99.90;;;;;;4992923;28;20033;-49
2022/11/16 04:50:37;;;;;;;24.75;15.50;;;11.30;99.90;;;;;;4992661;28;20090;-46
2022/11/16 04:53:04;;;;;;;22.52;16.25;;;11.30;99.90;;;;;;4992017;28;20026;-46
2022/11/16 04:55:29;;;;;;;21.15;16.13;;;11.30;99.90;;;;;;4992717;28;20037;-48
2022/11/16 04:57:55;;;;;;;22.20;16.52;;;11.30;99.90;;;;;;4992381;28;20034;-46
2022/11/16 05:00:21;;;;;;;22.25;16.45;;;11.30;99.90;;;;;;4992524;28;20034;-46
2022/11/16 05:02:46;;;;;;;23.58;16.75;;;11.30;99.90;;;;;;4991744;28;20050;-47
2022/11/16 05:05:12;;;;;;;23.88;15.82;;;11.20;99.90;;;;;;4992515;28;20034;-44
2022/11/16 05:07:38;;;;;;;21.25;17.38;;;11.30;99.90;;;;;;5004113;28;20022;-45
2022/11/16 05:10:05;;;;;;;18.77;15.85;;;11.20;99.90;;;;;;5007639;28;20026;-48
2022/11/16 05:12:32;;;;;;;20.85;16.33;;;11.20;99.90;;;;;;5007178;28;20414;-41
2022/11/16 05:14:57;;;;;;;24.70;17.05;;;11.20;99.90;;;;;;5008241;28;20010;-44
2022/11/16 05:17:24;;;;;;;20.65;15.93;;;11.20;99.90;;;;;;5011311;28;20022;-45
2022/11/16 05:22:35;;;;;;;19.08;15.60;;;11.20;99.90;;;;;;4993148;28;20037;-44
2022/11/16 05:25:01;;;;;;;23.15;17.30;;;11.20;99.90;;;;;;4993529;28;20034;-46
2022/11/16 05:27:27;;;;;;;20.55;16.63;;;11.20;99.90;;;;;;4991930;28;20026;-48
2022/11/16 05:29:54;;;;;;;21.55;16.63;;;11.20;99.90;;;;;;4993129;28;20026;-49
2022/11/16 05:32:20;;;;;;;21.63;16.00;;;11.20;99.90;;;;;;4992174;28;20029;-47
2022/11/16 05:34:46;;;;;;;21.35;14.93;;;11.20;99.90;;;;;;4992625;28;20085;-49
2022/11/16 05:37:13;;;;;;;22.65;15.35;;;11.20;99.90;;;;;;4992699;28;20030;-50
2022/11/16 05:39:38;;;;;;;19.05;15.68;;;11.20;99.90;;;;;;4992657;28;20387;-49
2022/11/16 05:42:05;;;;;;;20.92;16.15;;;11.20;99.90;;;;;;4992168;28;20034;-45
2022/11/16 05:44:30;;;;;;;23.55;16.55;;;11.20;99.90;;;;;;4992592;28;20098;-51
2022/11/16 05:46:56;;;;;;;21.92;16.33;;;11.20;99.90;;;;;;4992286;28;20054;-47
2022/11/16 05:49:22;;;;;;;23.73;17.73;;;11.20;99.90;;;;;;4992474;28;20037;-47
2022/11/16 05:51:47;;;;;;;21.15;16.25;;;11.20;99.90;;;;;;4992290;28;20032;-49
2022/11/16 05:54:15;;;;;;;20.70;17.08;;;11.20;99.90;;;;;;4992255;28;20061;-52
2022/11/16 05:56:41;;;;;;;21.98;16.95;;;11.20;99.90;;;;;;4992235;28;20037;-48
2022/11/16 05:59:07;;;;;;;26.80;18.08;;;11.10;99.90;;;;;;4992541;28;20486;-50
2022/11/16 06:01:33;;;;;;;24.95;17.25;;;11.20;99.90;;;;;;4992457;28;20058;-50
2022/11/16 06:03:59;;;;;;;22.13;16.48;;;11.10;99.90;;;;;;4991462;28;20031;-48
2022/11/16 06:06:25;;;;;;;23.17;16.33;;;11.20;99.90;;;;;;4992490;28;20027;-44
2022/11/16 06:08:51;;;;;;;21.20;15.68;;;11.10;99.90;;;;;;4992108;28;20029;-41
2022/11/16 06:11:16;;;;;;;21.27;16.10;;;11.10;99.90;;;;;;5007514;28;20026;-48
2022/11/16 06:13:42;;;;;;;22.30;15.93;;;11.10;99.90;;;;;;4991412;28;20029;-47
2022/11/16 06:16:08;;;;;;;21.90;16.20;;;11.10;99.90;;;;;;4991115;28;20101;-46
2022/11/16 06:18:37;;;;;;;22.67;16.25;;;11.10;99.90;;;;;;4992761;28;20153;-43
2022/11/16 06:21:03;;;;;;;21.05;16.40;;;11.10;99.90;;;;;;4992312;28;20033;-48
2022/11/16 06:23:28;;;;;;;21.02;16.88;;;11.10;99.90;;;;;;4991175;28;20022;-47
2022/11/16 06:25:54;;;;;;;21.50;16.00;;;11.20;99.90;;;;;;4992288;28;20054;-45
2022/11/16 06:28:21;;;;;;;22.33;15.95;;;11.10;99.90;;;;;;4991299;28;20025;-47
2022/11/16 06:30:47;;;;;;;22.73;16.60;;;11.10;99.90;;;;;;4992471;28;20058;-51
2022/11/16 06:33:14;;;;;;;23.05;16.27;;;11.10;99.90;;;;;;4991288;28;20487;-46
2022/11/16 06:35:39;;;;;;;22.48;16.98;;;11.10;99.90;;;;;;4991907;28;20034;-47
2022/11/16 06:38:05;;;;;;;20.38;16.13;;;11.00;99.90;;;;;;4991810;28;20092;-46
2022/11/16 06:40:31;;;;;;;20.10;15.70;;;11.00;99.90;;;;;;4994560;28;20050;-46
2022/11/16 06:42:57;;;;;;;27.55;16.73;;;11.00;99.90;;;;;;4994968;28;20110;-51
2022/11/16 06:45:23;;;;;;;24.52;16.13;;;10.90;99.90;;;;;;4995573;28;20093;-46
2022/11/16 06:47:49;;;;;;;21.98;16.30;;;10.90;99.90;;;;;;4995304;28;20023;-51
2022/11/16 06:50:18;;;;;;;26.00;16.13;;;10.90;99.90;;;;;;4995378;28;20495;-45
2022/11/16 06:52:45;;;;;;;21.98;16.30;;;10.80;99.90;;;;;;4994566;28;20506;-45
2022/11/16 06:55:11;;;;;;;23.05;15.95;;;10.80;99.90;;;;;;4995400;28;20038;-45
2022/11/16 06:57:36;;;;;;;23.40;17.02;;;10.70;99.90;;;;;;4995336;28;20026;-42
2022/11/16 07:00:03;;;;;;;18.88;15.07;;;10.80;99.90;;;;;;4994950;28;20031;-50
2022/11/16 07:02:29;;;;;;;21.55;15.65;;;10.70;99.90;;;;;;4994138;28;20116;-47
2022/11/16 07:04:54;;;;;;;20.35;13.93;;;10.70;99.90;;;;;;4997161;28;20482;-43
2022/11/16 07:07:20;;;;;;;17.25;13.38;;;10.70;99.90;;;;;;4997484;28;20105;-48
2022/11/16 07:09:45;;;;;;;18.38;12.80;;;10.70;99.90;;;;;;4995684;28;20054;-46
2022/11/16 07:12:11;;;;;;;15.75;12.25;;;10.70;99.90;;;;;;4995844;28;20054;-49
2022/11/16 07:14:37;;;;;;;23.20;12.05;;;10.70;99.90;;;;;;4995305;28;20030;-52
2022/11/16 07:17:02;;;;;;;16.42;11.02;;;10.70;99.90;;;;;;4994791;28;20067;-47
2022/11/16 07:19:28;;;;;;;19.20;11.18;;;10.70;99.90;;;;;;4994451;28;20041;-46
2022/11/16 07:21:53;;;;;;;15.45;9.93;;;10.70;99.90;;;;;;4994163;28;20404;-51
2022/11/16 07:24:19;;;;;;;19.23;10.95;;;10.70;99.90;;;;;;4994496;28;20026;-47
2022/11/16 07:26:44;;;;;;;17.10;10.30;;;10.80;99.90;;;;;;4993831;28;20034;-47
2022/11/16 07:29:10;;;;;;;20.92;12.20;;;10.80;99.90;;;;;;4994594;28;20018;-51
2022/11/16 07:31:35;;;;;;;26.10;13.93;;;10.90;99.90;;;;;;4994664;28;20105;-44
2022/11/16 07:34:01;;;;;;;20.63;14.75;;;11.00;99.90;;;;;;4993726;28;20546;-49
2022/11/16 07:36:26;;;;;;;20.90;14.52;;;11.00;99.90;;;;;;4994683;28;20027;-47
2022/11/16 07:38:53;;;;;;;25.75;15.82;;;11.00;99.90;;;;;;5013542;23;20105;-47
2022/11/16 07:41:19;;;;;;;22.00;15.70;;;11.00;99.90;;;;;;4992342;28;20165;-45
2022/11/16 07:43:45;;;;;;;21.77;15.48;;;11.00;99.90;;;;;;4987363;28;20019;-45
2022/11/16 07:46:16;;;;;;;23.88;16.33;;;11.10;99.90;;;;;;4993828;28;20509;-46
2022/11/16 07:48:42;;;;;;;25.80;16.05;;;11.10;99.90;;;;;;4992236;28;20026;-48
2022/11/16 07:51:13;;;;;;;26.02;17.25;;;11.10;99.90;;;;;;4992685;28;20406;-47
2022/11/16 07:53:39;;;;;;;25.10;17.35;;;11.20;99.90;;;;;;4992996;28;20026;-47
2022/11/16 07:56:05;;;;;;;25.70;17.33;;;11.20;99.90;;;;;;4991832;28;20027;-47
2022/11/16 07:58:33;;;;;;;21.52;15.82;;;11.20;99.90;;;;;;5009878;28;20033;-49
2022/11/16 08:01:06;;;;;;;20.73;15.05;;;11.20;99.90;;;;;;4989067;28;20371;-50
2022/11/16 08:03:34;;;;;;;18.65;13.93;;;11.30;99.90;;;;;;4992965;28;20438;-45
2022/11/16 08:06:01;;;;;;;18.10;11.88;;;11.30;99.90;;;;;;4993578;28;20023;-47
2022/11/16 08:08:27;;;;;;;16.98;12.65;;;11.30;99.90;;;;;;4992838;28;20101;-46
2022/11/16 08:11:05;;;;;;;12.95;10.35;;;11.40;99.90;;;;;;4990993;28;20121;-46
2022/11/16 08:13:33;;;;;;;12.23;8.25;;;11.40;99.90;;;;;;4990282;28;20112;-45
2022/11/16 08:16:11;;;;;;;10.75;7.13;;;11.50;99.90;;;;;;4980658;28;20018;-45
2022/11/16 08:18:38;;;;;;;8.32;6.28;;;11.50;99.90;;;;;;4984384;28;20027;-50
2022/11/16 08:21:05;;;;;;;9.93;6.10;;;11.50;99.90;;;;;;4976857;28;20027;-46
2022/11/16 08:23:31;;;;;;;8.27;6.13;;;11.50;99.90;;;;;;4979198;28;20054;-51
2022/11/16 08:26:01;;;;;;;11.57;6.30;;;11.50;99.90;;;;;;4981577;28;20431;-50
2022/11/16 08:28:28;;;;;;;10.43;6.10;;;11.50;99.90;;;;;;4981059;28;20019;-47
2022/11/16 08:30:54;;;;;;;8.50;5.88;;;11.50;99.90;;;;;;4990614;28;20525;-46
2022/11/16 08:33:20;;;;;;;11.90;6.18;;;11.60;99.90;;;;;;4992430;28;20031;-50
2022/11/16 08:35:47;;;;;;;10.98;6.97;;;11.70;99.90;;;;;;4993417;28;20402;-47
2022/11/16 08:38:13;;;;;;;9.80;6.10;;;11.80;99.90;;;;;;4992849;28;20436;-46
2022/11/16 08:40:38;;;;;;;9.45;6.53;;;11.90;99.90;;;;;;4993503;28;20031;-46
2022/11/16 08:43:04;;;;;;;10.27;6.50;;;11.90;99.90;;;;;;4995263;28;20042;-49
2022/11/16 08:45:30;;;;;;;6.43;5.03;;;11.80;99.90;;;;;;4993600;28;20033;-48
2022/11/16 08:47:56;;;;;;;9.90;5.25;;;11.90;99.90;;;;;;4992970;28;20104;-47
2022/11/16 08:50:21;;;;;;;7.07;5.35;;;11.80;99.90;;;;;;4992985;28;20455;-46
2022/11/16 08:52:47;;;;;;;6.60;5.05;;;11.80;99.90;;;;;;4992438;28;20030;-48
2022/11/16 08:55:13;;;;;;;11.38;4.97;;;11.80;99.90;;;;;;4992682;28;20402;-50
2022/11/16 08:57:39;;;;;;;10.65;4.70;;;11.70;99.90;;;;;;4992734;28;20019;-49
2022/11/16 09:00:06;;;;;;;5.78;4.20;;;11.80;99.90;;;;;;4993600;28;20026;-44
2022/11/16 09:02:32;;;;;;;5.82;4.10;;;12.00;99.90;;;;;;4990844;28;20031;-46
2022/11/16 09:04:57;;;;;;;9.15;4.18;;;12.20;99.90;;;;;;4992375;28;20033;-47
2022/11/16 09:07:23;;;;;;;13.18;3.80;;;12.40;99.90;;;;;;4992095;28;20443;-46
2022/11/16 09:09:48;;;;;;;5.85;3.03;;;12.70;99.90;;;;;;4992290;28;20030;-48
2022/11/16 09:12:14;;;;;;;7.28;3.13;;;12.70;99.90;;;;;;4988651;28;20167;-49
2022/11/16 09:14:39;;;;;;;6.25;2.80;;;12.70;99.90;;;;;;4973361;28;20029;-46
2022/11/16 09:17:05;;;;;;;3.85;2.60;;;12.70;99.90;;;;;;4974029;28;20093;-46
2022/11/16 09:19:30;;;;;;;7.05;2.83;;;12.70;99.90;;;;;;4973404;28;20105;-46
2022/11/16 09:21:57;;;;;;;3.88;2.85;;;12.60;99.90;;;;;;4977243;28;20056;-46
2022/11/16 09:24:23;;;;;;;6.45;2.20;;;12.50;99.90;;;;;;4991303;28;20448;-47
2022/11/16 09:26:48;;;;;;;6.03;2.13;;;12.40;99.90;;;;;;5006546;28;20109;-50
2022/11/16 09:29:14;;;;;;;7.60;2.55;;;12.40;99.90;;;;;;4991963;28;20114;-49
2022/11/16 09:31:40;;;;;;;9.20;4.03;;;12.40;99.90;;;;;;4991766;28;20022;-45
2022/11/16 09:34:06;;;;;;;5.47;2.10;;;12.50;99.90;;;;;;4991438;28;20033;-49
2022/11/16 09:36:32;;;;;;;4.60;1.63;;;12.70;99.90;;;;;;4991929;28;20053;-47
2022/11/16 09:38:58;;;;;;;5.45;1.60;;;13.00;99.90;;;;;;4990183;28;20070;-50
2022/11/16 09:41:49;;;;;;;7.93;1.52;;;13.30;99.90;;;;;;4991427;28;20030;-49
2022/11/16 09:44:34;;;;;;;5.97;1.40;;;13.50;99.90;;;;;;4982803;28;20088;-50
2022/11/16 09:47:00;;;;;;;5.50;2.28;;;13.40;99.90;;;;;;4991610;28;20109;-47
2022/11/16 09:49:34;;;;;;;2.58;1.58;;;13.20;99.90;;;;;;4988983;28;20022;-46
2022/11/16 09:52:03;;;;;;;6.28;1.83;;;13.20;99.90;;;;;;4970375;28;20031;-47
2022/11/16 09:54:34;;;;;;;6.45;2.05;;;13.20;99.90;;;;;;4971209;28;20027;-45
2022/11/16 09:57:04;;;;;;;7.97;1.40;;;13.00;99.90;;;;;;4988684;28;20033;-46
2022/11/16 09:59:43;;;;;;;8.15;1.85;;;13.10;99.90;;;;;;4992374;28;20073;-49
2022/11/16 10:02:31;;;;;;;7.75;2.05;;;13.10;99.90;;;;;;4984510;28;20023;-50
2022/11/16 10:05:23;;;;;;;4.85;1.80;;;13.20;99.90;;;;;;4973746;28;20027;-49
2022/11/16 10:08:03;;;;;;;3.33;1.60;;;13.30;99.90;;;;;;4975860;28;20480;-47
2022/11/16 10:10:39;;;;;;;7.00;1.73;;;13.50;99.90;;;;;;5013770;28;20042;-48
2022/11/16 10:13:19;;;;;;;7.85;1.90;;;13.50;99.90;;;;;;4995027;28;20372;-46
2022/11/16 10:16:01;;;;;;;8.32;2.70;;;13.40;99.90;;;;;;5007795;28;20026;-51
2022/11/16 10:18:47;;;;;;;9.85;1.98;;;13.30;99.90;;;;;;5013671;28;20083;-52
2022/11/16 10:21:31;;;;;;;11.05;1.98;;;13.30;99.90;;;;;;4998909;28;20053;-48
2022/11/16 10:24:32;;;;;;;5.47;1.52;;;13.20;99.90;;;;;;4994843;28;20029;-46
2022/11/16 10:27:22;;;;;;;4.70;2.20;;;13.20;99.90;;;;;;4994701;28;20109;-46
2022/11/16 10:29:53;;;;;;;8.07;2.17;;;13.20;99.90;;;;;;4994693;28;20014;-45
2022/11/16 10:32:28;;;;;;;4.45;2.17;;;13.20;99.90;;;;;;4991935;28;20109;-45
2022/11/16 10:35:04;;;;;;;4.55;2.08;;;13.20;99.90;;;;;;4992287;28;20039;-46
2022/11/16 10:37:31;;;;;;;12.88;2.40;;;13.20;99.90;;;;;;4992415;28;20034;-50
2022/11/16 10:39:57;;;;;;;6.97;1.88;;;13.10;99.90;;;;;;5010446;28;20054;-49
2022/11/16 10:42:38;;;;;;;8.45;2.38;;;13.10;99.90;;;;;;5006520;28;20023;-46
2022/11/16 10:45:09;;;;;;;12.88;2.63;;;13.00;99.90;;;;;;4987474;28;20022;-47
2022/11/16 10:47:45;;;;;;;7.65;1.90;;;13.00;99.90;;;;;;4997640;28;20112;-47
2022/11/16 10:50:36;;;;;;;7.00;2.03;;;13.00;99.90;;;;;;4995413;28;20022;-46
2022/11/16 10:53:02;;;;;;;8.00;2.53;;;12.90;99.90;;;;;;4990838;28;20030;-46
2022/11/16 10:55:27;;;;;;;10.35;1.90;;;12.90;99.90;;;;;;5009462;28;20397;-46
2022/11/16 10:57:59;;;;;;;25.27;9.80;;;12.90;99.90;;;;;;5005146;28;20550;-46
2022/11/16 11:00:39;;;;;;;11.63;3.03;;;12.80;99.90;;;;;;4974948;28;20105;-49
2022/11/16 11:03:05;;;;;;;8.98;3.42;;;12.80;99.90;;;;;;4974530;28;20027;-47
2022/11/16 11:05:33;;;;;;;12.70;2.20;;;12.80;99.90;;;;;;4973369;28;20402;-48
2022/11/16 11:08:09;;;;;;;9.05;2.17;;;12.90;99.90;;;;;;4974801;28;20031;-47
2022/11/16 11:10:40;;;;;;;18.15;3.45;;;13.10;99.90;;;;;;4985591;28;20069;-52
2022/11/16 11:13:08;;;;;;;7.38;1.65;;;13.30;99.90;;;;;;4996478;28;20029;-46
2022/11/16 11:15:35;;;;;;;9.95;2.33;;;13.50;99.90;;;;;;4996449;28;20125;-48
2022/11/16 11:18:32;;;;;;;6.22;1.90;;;13.60;99.90;;;;;;4994224;28;20383;-48
2022/11/16 11:21:23;;;;;;;11.82;3.28;;;13.70;99.90;;;;;;4993495;28;20053;-47
2022/11/16 11:23:51;;;;;;;12.35;3.10;;;13.80;99.90;;;;;;4974102;28;20035;-48
2022/11/16 11:26:29;;;;;;;5.22;1.63;;;13.80;99.90;;;;;;4973779;28;20428;-48
2022/11/16 11:28:56;;;;;;;7.70;2.17;;;13.80;99.90;;;;;;4974478;28;20030;-48
2022/11/16 11:31:26;;;;;;;9.30;1.90;;;13.80;99.90;;;;;;4974774;28;20104;-45
2022/11/16 11:33:59;;;;;;;7.60;1.73;;;13.70;99.90;;;;;;4987945;28;20026;-45
2022/11/16 11:36:34;;;;;;;9.45;1.60;;;13.70;99.90;;;;;;4992348;28;20222;-45
2022/11/16 11:39:04;;;;;;;7.90;2.37;;;13.70;99.90;;;;;;4978979;28;20546;-46
2022/11/16 11:41:38;;;;;;;5.68;1.60;;;13.80;99.90;;;;;;4975920;28;20421;-47
2022/11/16 11:44:28;;;;;;;10.80;2.10;;;13.80;99.90;;;;;;4992689;28;20101;-46
2022/11/16 11:47:00;;;;;;;11.60;2.08;;;13.70;99.90;;;;;;4993134;28;20034;-48
2022/11/16 11:49:30;;;;;;;18.90;3.30;;;13.70;99.90;;;;;;4989065;28;20114;-50
2022/11/16 11:52:04;;;;;;;13.95;4.07;;;13.50;99.90;;;;;;4993033;28;20028;-46
2022/11/16 11:54:33;;;;;;;23.42;9.13;;;13.50;99.90;;;;;;4985688;28;20399;-45
2022/11/16 11:57:01;;;;;;;8.07;3.15;;;13.40;99.90;;;;;;4997862;28;20049;-45
2022/11/16 11:59:27;;;;;;;6.63;2.17;;;13.30;99.90;;;;;;4998809;28;20046;-45
2022/11/16 12:02:31;;;;;;;15.05;2.20;;;13.20;99.90;;;;;;4993153;28;20062;-47
2022/11/16 12:05:34;;;;;;;8.02;1.77;;;13.20;99.90;;;;;;4945743;28;20041;-53
2022/11/16 12:08:27;;;;;;;11.65;2.40;;;13.30;99.90;;;;;;4993182;28;20080;-44
2022/11/16 12:11:03;;;;;;;8.07;1.98;;;13.40;99.90;;;;;;4993459;28;20027;-47
2022/11/16 12:13:56;;;;;;;5.32;2.17;;;13.50;99.90;;;;;;4991742;28;20026;-49
2022/11/16 12:16:47;;;;;;;11.48;2.30;;;13.70;99.90;;;;;;4993448;28;20177;-47
2022/11/16 12:19:24;;;;;;;7.30;2.22;;;13.80;99.90;;;;;;4993025;28;20026;-47
2022/11/16 12:22:10;;;;;;;9.65;2.00;;;13.80;99.90;;;;;;4976997;28;20039;-45
2022/11/16 12:24:51;;;;;;;8.48;2.00;;;13.80;99.90;;;;;;4979991;28;20058;-45
2022/11/16 12:27:40;;;;;;;14.75;2.53;;;13.70;99.90;;;;;;4983122;28;20026;-47
2022/11/16 12:30:21;;;;;;;11.07;1.92;;;13.60;99.90;;;;;;4980826;28;20106;-49
2022/11/16 12:33:20;;;;;;;8.57;2.10;;;13.50;99.90;;;;;;4981108;28;20019;-46
2022/11/16 12:36:03;;;;;;;8.57;1.73;;;13.50;99.90;;;;;;4954589;28;20058;-45
2022/11/16 12:38:37;;;;;;;6.43;2.17;;;13.30;99.90;;;;;;4980150;28;20037;-45
2022/11/16 12:41:33;;;;;;;10.90;2.10;;;13.70;99.90;;;;;;4981782;28;20026;-46
2022/11/16 12:44:08;;;;;;;10.23;3.15;;;13.50;99.90;;;;;;4980883;28;20015;-47
2022/11/16 12:46:43;;;;;;;6.85;1.75;;;13.60;99.90;;;;;;4991793;28;20530;-47
2022/11/16 12:49:08;;;;;;;14.32;2.53;;;13.70;99.90;;;;;;5020154;28;20038;-50
2022/11/16 12:51:54;;;;;;;9.45;1.98;;;13.80;99.90;;;;;;5002213;28;20062;-52
2022/11/16 12:54:29;;;;;;;;;;;13.70;99.90;;;;;;5002805;28;20113;-52
2022/11/16 12:57:35;;;;;;;16.38;2.95;;;13.60;99.90;;;;;;5021601;28;19913;-53
2022/11/16 13:00:05;;;;;;;6.70;1.33;;;13.60;99.90;;;;;;4999602;28;20530;-48
2022/11/16 13:03:15;;;;;;;7.65;1.52;;;13.50;99.90;;;;;;4999433;28;20023;-49
2022/11/16 13:06:07;;;;;;;10.80;2.00;;;13.50;99.90;;;;;;5000321;28;20023;-49
2022/11/16 13:08:43;;;;;;;5.70;1.38;;;13.50;99.90;;;;;;5000255;28;20097;-50
2022/11/16 13:11:17;;;;;;;11.82;1.92;;;13.50;99.90;;;;;;4998801;28;20022;-45
2022/11/16 13:13:44;;;;;;;12.57;1.90;;;13.40;99.90;;;;;;4997071;28;20022;-45
2022/11/16 13:16:15;;;;;;;7.10;1.73;;;13.40;99.90;;;;;;5018025;28;20041;-49
2022/11/16 13:18:42;;;;;;;8.25;2.45;;;13.40;99.90;;;;;;5002636;28;20160;-49
2022/11/16 13:21:35;;;;;;;6.13;1.15;;;13.50;99.90;;;;;;5018435;28;20030;-50
2022/11/16 13:24:23;;;;;;;8.52;1.50;;;13.50;99.90;;;;;;5000399;28;20064;-44
2022/11/16 13:27:15;;;;;;;9.45;2.00;;;13.60;99.90;;;;;;5000073;28;20133;-47
2022/11/16 13:29:54;;;;;;;7.13;1.85;;;13.60;99.90;;;;;;5001861;28;20014;-45
2022/11/16 13:32:32;;;;;;;10.65;2.60;;;13.60;99.90;;;;;;5000467;28;20030;-48
2022/11/16 13:35:00;;;;;;;12.10;4.30;;;13.60;99.90;;;;;;5001886;28;20026;-47